Time;durP1;ratioP1;P1;durP2;ratioP2;P2;SDS_P1;SDS_P2;PMS_P1;PMS_P2;Temp;Humidity;BMP_temperature;BMP_pressure;BME280_temperature;BME280_humidity;BME280_pressure;Samples;Min_cycle;Max_cycle;Signal;HPM_P1;HPM_P2
2021/11/20 00:01:56;;;;;;;0.50;0.50;;;;;;;9.73;81.96;103037.63;5070284;28;20093;-68
2021/11/20 00:04:21;;;;;;;0.40;0.40;;;;;;;9.82;81.61;103046.09;5075090;28;20267;-69
2021/11/20 00:06:51;;;;;;;0.47;0.47;;;;;;;9.81;81.38;103051.19;5058486;28;20043;-69
2021/11/20 00:09:20;;;;;;;0.23;0.23;;;;;;;9.82;81.45;103043.47;5061721;28;20040;-68
2021/11/20 00:11:48;;;;;;;0.40;0.40;;;;;;;9.84;81.40;103020.91;5061705;28;20056;-69
2021/11/20 00:14:14;;;;;;;0.30;0.30;;;;;;;9.84;81.66;103025.25;5079389;28;20115;-69
2021/11/20 00:16:41;;;;;;;0.30;0.30;;;;;;;9.88;80.98;103033.41;5062160;28;20021;-68
2021/11/20 00:19:07;;;;;;;0.20;0.20;;;;;;;9.85;81.33;103030.56;5078193;28;20115;-69
2021/11/20 00:21:37;;;;;;;0.40;0.40;;;;;;;9.87;80.74;103020.22;5079519;28;20099;-69
2021/11/20 00:24:06;;;;;;;0.30;0.30;;;;;;;9.82;81.00;103014.69;5078883;28;20020;-71
2021/11/20 00:26:34;;;;;;;0.40;0.40;;;;;;;9.83;81.02;103026.06;5079333;28;20048;-68
2021/11/20 00:31:32;;;;;;;0.33;0.33;;;;;;;9.78;80.69;103015.28;5078252;28;20315;-68
2021/11/20 00:33:57;;;;;;;0.50;0.50;;;;;;;9.78;80.82;103012.66;5057497;28;20024;-67
2021/11/20 00:36:23;;;;;;;0.70;0.70;;;;;;;9.75;80.50;103012.47;5061153;28;20298;-69
2021/11/20 00:38:50;;;;;;;0.30;0.30;;;;;;;9.76;80.15;103017.81;5078031;28;20424;-68
2021/11/20 00:41:22;;;;;;;0.40;0.40;;;;;;;9.74;79.96;103015.88;5078052;28;20024;-68
2021/11/20 00:43:48;;;;;;;0.30;0.30;;;;;;;9.75;80.01;103015.06;5077861;28;20082;-67
2021/11/20 00:46:16;;;;;;;0.50;0.50;;;;;;;9.73;80.03;103009.72;5078367;28;20066;-67
2021/11/20 00:48:45;;;;;;;0.30;0.30;;;;;;;9.75;79.97;103013.38;5077055;28;20115;-68
2021/11/20 00:51:12;;;;;;;0.30;0.30;;;;;;;9.73;80.02;103001.88;5060204;28;20386;-67
2021/11/20 00:53:38;;;;;;;0.50;0.50;;;;;;;9.72;79.50;103014.88;5078264;28;20024;-68
2021/11/20 00:56:06;;;;;;;0.40;0.40;;;;;;;9.75;79.33;103016.00;5059219;28;20040;-68
2021/11/20 00:58:32;;;;;;;0.50;0.50;;;;;;;9.71;79.25;103006.13;5059710;28;20366;-68
2021/11/20 01:01:01;;;;;;;0.37;0.37;;;;;;;9.70;79.78;102998.16;5059954;28;20446;-68
2021/11/20 01:03:27;;;;;;;0.30;0.30;;;;;;;9.68;80.45;103005.94;5060639;28;20055;-68
2021/11/20 01:05:53;;;;;;;0.40;0.40;;;;;;;9.66;80.19;103015.38;5077513;28;20016;-67
2021/11/20 01:08:22;;;;;;;0.40;0.40;;;;;;;9.65;80.30;103004.81;5060031;28;20280;-68
2021/11/20 01:10:55;;;;;;;0.60;0.50;;;;;;;9.66;80.02;103009.25;5058234;28;20326;-68
2021/11/20 01:13:22;;;;;;;0.50;0.50;;;;;;;9.65;79.62;103007.44;5076295;28;20090;-68
2021/11/20 01:15:51;;;;;;;0.40;0.40;;;;;;;9.66;79.71;103004.00;5059856;28;20330;-68
2021/11/20 01:18:18;;;;;;;0.70;0.50;;;;;;;9.66;79.59;103004.00;5076568;28;20056;-68
2021/11/20 01:20:45;;;;;;;0.50;0.50;;;;;;;9.69;79.37;103001.59;5077371;28;20035;-69
2021/11/20 01:23:15;;;;;;;0.30;0.30;;;;;;;9.67;79.69;102996.28;5078359;28;20020;-68
2021/11/20 01:25:42;;;;;;;0.47;0.47;;;;;;;9.70;79.52;102998.16;5060189;28;20033;-69
2021/11/20 01:28:07;;;;;;;0.30;0.30;;;;;;;9.67;79.62;102998.88;5078081;28;20429;-68
2021/11/20 01:30:34;;;;;;;0.40;0.40;;;;;;;9.68;79.33;102998.06;5076495;28;20048;-69
2021/11/20 01:32:59;;;;;;;0.47;0.47;;;;;;;9.70;79.27;102995.53;5077771;28;20032;-68
2021/11/20 01:35:25;;;;;;;0.30;0.30;;;;;;;9.70;79.15;102991.22;5077234;28;20035;-68
2021/11/20 01:37:50;;;;;;;0.43;0.43;;;;;;;9.72;79.57;102994.84;5078557;28;20040;-68
2021/11/20 01:40:19;;;;;;;0.30;0.30;;;;;;;9.72;79.06;102993.97;5077929;28;20024;-68
2021/11/20 01:42:44;;;;;;;0.60;0.47;;;;;;;9.76;78.28;102990.72;5077710;28;20059;-68
2021/11/20 01:45:15;;;;;;;0.30;0.30;;;;;;;9.78;78.50;102990.84;5078361;28;20390;-67
2021/11/20 01:47:45;;;;;;;0.30;0.30;;;;;;;9.76;78.64;102988.09;5078287;28;20043;-68
2021/11/20 01:50:21;;;;;;;0.37;0.37;;;;;;;9.75;78.78;102982.00;5077637;28;20429;-68
2021/11/20 01:53:08;;;;;;;0.37;0.37;;;;;;;9.73;78.95;102980.06;5060748;28;20028;-67
2021/11/20 01:55:42;;;;;;;0.50;0.50;;;;;;;9.70;79.20;102990.31;5060769;28;20383;-68
2021/11/20 01:58:22;;;;;;;0.50;0.50;;;;;;;9.68;79.48;102982.38;5060683;28;20032;-67
2021/11/20 02:01:14;;;;;;;0.40;0.40;;;;;;;9.65;79.58;102974.31;5076445;28;20026;-68
2021/11/20 02:03:49;;;;;;;0.30;0.30;;;;;;;9.62;80.18;102968.88;5077500;28;20021;-68
2021/11/20 02:06:25;;;;;;;0.30;0.30;;;;;;;9.59;80.44;102971.31;5060586;28;20059;-68
2021/11/20 02:08:56;;;;;;;;;;;;;;;9.56;80.14;102969.41;5060934;28;20024;-68
2021/11/20 02:11:37;;;;;;;0.40;0.40;;;;;;;9.56;80.25;102966.78;5060766;28;19916;-67
2021/11/20 02:14:04;;;;;;;0.53;0.53;;;;;;;9.56;80.51;102971.09;5060400;28;20031;-68
2021/11/20 02:16:40;;;;;;;0.70;0.70;;;;;;;9.55;80.56;102966.66;5077454;28;20075;-67
2021/11/20 02:19:10;;;;;;;0.40;0.40;;;;;;;9.56;80.38;102964.16;5077005;28;20048;-68
2021/11/20 02:21:46;;;;;;;0.50;0.50;;;;;;;9.56;80.53;102965.84;5077820;28;20029;-69
2021/11/20 02:24:11;;;;;;;0.50;0.50;;;;;;;9.55;79.79;102966.66;5043185;28;20299;-68
2021/11/20 02:26:36;;;;;;;0.40;0.40;;;;;;;9.55;79.79;102962.34;5060247;28;20082;-68
2021/11/20 02:29:05;;;;;;;0.20;0.20;;;;;;;9.58;79.55;102961.63;5077111;28;20375;-68
2021/11/20 02:31:35;;;;;;;0.40;0.40;;;;;;;9.58;79.78;102973.00;5075829;28;20472;-67
2021/11/20 02:34:00;;;;;;;0.30;0.30;;;;;;;9.57;79.45;102963.34;5059017;28;20029;-68
2021/11/20 02:36:26;;;;;;;0.50;0.50;;;;;;;9.57;79.05;102958.13;5077364;28;20328;-67
2021/11/20 02:39:03;;;;;;;0.40;0.40;;;;;;;9.58;79.22;102949.47;5076679;28;20036;-67
2021/11/20 02:41:31;;;;;;;0.40;0.40;;;;;;;9.58;79.27;102945.94;5077715;28;20028;-67
2021/11/20 02:44:00;;;;;;;0.57;0.57;;;;;;;9.59;78.44;102951.28;5076915;28;20363;-68
2021/11/20 02:46:28;;;;;;;0.50;0.50;;;;;;;9.60;78.60;102949.56;5075742;28;20028;-67
2021/11/20 02:48:54;;;;;;;0.47;0.47;;;;;;;9.58;78.68;102945.94;5076163;28;20295;-68
2021/11/20 02:51:24;;;;;;;0.50;0.50;;;;;;;9.58;79.04;102940.69;5059863;28;20052;-68
2021/11/20 02:53:58;;;;;;;0.30;0.30;;;;;;;9.56;79.13;102935.38;5059467;28;20028;-67
2021/11/20 02:56:26;;;;;;;0.73;0.73;;;;;;;9.54;79.15;102933.47;5076343;28;20044;-68
2021/11/20 02:58:52;;;;;;;0.40;0.40;;;;;;;9.53;78.99;102934.28;5076721;28;20023;-68
2021/11/20 03:01:21;;;;;;;0.40;0.40;;;;;;;9.52;78.60;102935.09;5076583;28;20298;-69
2021/11/20 03:03:47;;;;;;;0.50;0.50;;;;;;;9.52;78.19;102925.50;5076765;28;20026;-68
2021/11/20 03:06:12;;;;;;;0.47;0.47;;;;;;;9.52;78.84;102929.84;5059395;28;20107;-69
2021/11/20 03:08:37;;;;;;;0.23;0.23;;;;;;;9.49;78.77;102917.47;5077072;28;20367;-67
2021/11/20 03:11:03;;;;;;;0.50;0.50;;;;;;;9.49;78.78;102914.88;5076929;28;20104;-68
2021/11/20 03:13:30;;;;;;;0.37;0.37;;;;;;;9.48;78.33;102921.78;5076674;28;20306;-67
2021/11/20 03:15:55;;;;;;;0.47;0.47;;;;;;;9.48;77.76;102918.28;5076502;28;20067;-68
2021/11/20 03:18:20;;;;;;;0.50;0.50;;;;;;;9.48;78.71;102923.50;5076843;28;20025;-68
2021/11/20 03:20:46;;;;;;;0.40;0.40;;;;;;;9.48;78.11;102921.78;5076517;28;20028;-67
2021/11/20 03:23:15;;;;;;;0.40;0.40;;;;;;;9.47;77.37;102922.59;5076850;28;20028;-68
2021/11/20 03:25:41;;;;;;;0.30;0.30;;;;;;;9.53;77.04;102919.47;5076273;28;20039;-68
2021/11/20 03:28:06;;;;;;;0.40;0.40;;;;;;;9.55;77.26;102907.44;5076789;28;20029;-68
2021/11/20 03:30:32;;;;;;;0.40;0.40;;;;;;;9.52;77.21;102904.59;5074825;28;20356;-68
2021/11/20 03:32:57;;;;;;;0.53;0.53;;;;;;;9.56;76.68;102906.63;5058113;28;20020;-68
2021/11/20 03:35:24;;;;;;;0.57;0.57;;;;;;;9.56;76.95;102906.63;5076402;28;20021;-68
2021/11/20 03:37:52;;;;;;;0.50;0.50;;;;;;;9.54;76.94;102908.22;5076857;28;20032;-68
2021/11/20 03:40:17;;;;;;;0.60;0.60;;;;;;;9.56;76.53;102908.31;5076538;28;20489;-68
2021/11/20 03:42:43;;;;;;;0.40;0.40;;;;;;;9.53;77.29;102910.75;5078470;28;20036;-68
2021/11/20 03:45:09;;;;;;;0.50;0.50;;;;;;;9.49;77.76;102905.28;5080433;28;20036;-68
2021/11/20 03:47:35;;;;;;;0.30;0.30;;;;;;;9.48;77.82;102899.97;5062742;28;20625;-69
2021/11/20 03:50:02;;;;;;;0.40;0.40;;;;;;;9.46;78.03;102891.09;5062921;28;20035;-68
2021/11/20 03:52:27;;;;;;;0.30;0.30;;;;;;;9.52;76.94;102888.91;5080895;28;20127;-68
2021/11/20 03:54:53;;;;;;;0.33;0.33;;;;;;;9.48;77.16;102893.03;5062649;28;20371;-68
2021/11/20 03:57:18;;;;;;;0.90;0.90;;;;;;;9.45;77.71;102889.28;5080410;28;20024;-68
2021/11/20 03:59:44;;;;;;;0.40;0.40;;;;;;;9.46;77.47;102893.72;5080193;28;20311;-68
2021/11/20 04:02:09;;;;;;;0.40;0.40;;;;;;;9.45;77.38;102887.59;5079495;28;20097;-69
2021/11/20 04:04:35;;;;;;;0.30;0.30;;;;;;;9.43;78.17;102890.91;5079621;28;20020;-68
2021/11/20 04:07:02;;;;;;;0.40;0.40;;;;;;;9.42;77.38;102891.72;5080043;28;20371;-68
2021/11/20 04:09:27;;;;;;;0.60;0.60;;;;;;;9.41;77.21;102890.81;5062612;28;20028;-68
2021/11/20 04:11:53;;;;;;;0.33;0.33;;;;;;;9.40;78.05;102890.72;5062708;28;20375;-68
2021/11/20 04:14:20;;;;;;;0.83;0.83;;;;;;;9.40;77.18;102891.59;5080207;28;20082;-68
2021/11/20 04:16:46;;;;;;;0.40;0.40;;;;;;;9.39;77.53;102895.03;5080127;28;20028;-68
2021/11/20 04:19:11;;;;;;;0.40;0.40;;;;;;;9.41;77.00;102893.41;5079379;28;20028;-68
2021/11/20 04:21:37;;;;;;;0.43;0.43;;;;;;;9.41;77.16;102896.03;5079771;28;20054;-67
2021/11/20 04:24:04;;;;;;;0.53;0.53;;;;;;;9.42;77.30;102882.19;5079501;28;20071;-69
2021/11/20 04:26:30;;;;;;;0.33;0.33;;;;;;;9.44;76.66;102885.78;5080156;28;20032;-67
2021/11/20 04:28:55;;;;;;;0.63;0.63;;;;;;;9.48;76.27;102879.94;5079388;28;20028;-67
2021/11/20 04:31:21;;;;;;;0.83;0.83;;;;;;;9.48;75.79;102873.81;5078512;28;20157;-68
2021/11/20 04:33:48;;;;;;;0.40;0.40;;;;;;;9.47;76.25;102872.91;5078391;28;20077;-68
2021/11/20 04:36:14;;;;;;;0.37;0.37;;;;;;;9.45;76.46;102871.00;5061950;28;20028;-67
2021/11/20 04:38:40;;;;;;;0.33;0.33;;;;;;;9.45;76.23;102871.00;5078866;28;20029;-68
2021/11/20 04:41:06;;;;;;;0.50;0.50;;;;;;;9.43;75.98;102864.75;5079295;28;20024;-67
2021/11/20 04:43:31;;;;;;;0.47;0.47;;;;;;;9.43;75.99;102864.75;5079545;28;20051;-69
2021/11/20 04:45:56;;;;;;;0.30;0.30;;;;;;;9.39;75.61;102863.66;5079106;28;20099;-69
2021/11/20 04:48:22;;;;;;;0.47;0.47;;;;;;;9.40;76.15;102869.81;5079795;28;20102;-68
2021/11/20 04:50:49;;;;;;;0.60;0.60;;;;;;;9.36;76.37;102871.31;5079304;28;20039;-68
2021/11/20 04:53:15;;;;;;;0.30;0.30;;;;;;;9.34;77.28;102870.31;5079341;28;20433;-69
2021/11/20 04:55:41;;;;;;;0.30;0.30;;;;;;;9.37;76.56;102875.72;5078794;28;20024;-68
2021/11/20 04:58:07;;;;;;;0.40;0.40;;;;;;;9.37;76.37;102870.50;5078702;28;20115;-68
2021/11/20 05:00:42;;;;;;;0.30;0.30;;;;;;;9.35;76.23;102870.38;5079398;28;20467;-68
2021/11/20 05:03:08;;;;;;;0.40;0.40;;;;;;;9.35;76.19;102867.78;5061352;28;20108;-68
2021/11/20 05:05:35;;;;;;;0.30;0.30;;;;;;;9.35;76.65;102869.50;5078688;28;20028;-67
2021/11/20 05:08:02;;;;;;;0.40;0.40;;;;;;;9.35;76.68;102869.50;5078967;28;20024;-67
2021/11/20 05:10:28;;;;;;;0.53;0.53;;;;;;;9.34;76.83;102868.59;5061630;28;20024;-68
2021/11/20 05:12:53;;;;;;;0.40;0.40;;;;;;;9.33;77.06;102868.47;5079076;28;20026;-68
2021/11/20 05:15:19;;;;;;;0.40;0.40;;;;;;;9.34;77.26;102865.97;5078513;28;20063;-67
2021/11/20 05:17:44;;;;;;;0.30;0.30;;;;;;;9.37;76.78;102862.66;5079369;28;20030;-68
2021/11/20 05:20:10;;;;;;;0.50;0.50;;;;;;;9.37;76.92;102859.13;5077842;28;20052;-68
2021/11/20 05:22:36;;;;;;;0.40;0.40;;;;;;;9.34;76.90;102855.50;5061834;28;20063;-69
2021/11/20 05:25:02;;;;;;;0.60;0.60;;;;;;;9.35;76.66;102853.81;5061128;28;20055;-68
2021/11/20 05:27:27;;;;;;;0.40;0.40;;;;;;;9.36;76.47;102853.00;5061461;28;20028;-69
2021/11/20 05:32:19;;;;;;;0.40;0.40;;;;;;;9.41;75.82;102841.13;5077082;28;20357;-68
2021/11/20 05:34:44;;;;;;;0.40;0.40;;;;;;;9.35;76.82;102840.75;5077424;28;20073;-69
2021/11/20 05:37:14;;;;;;;0.67;0.67;;;;;;;9.35;77.04;102843.38;5078031;28;20024;-68
2021/11/20 05:39:39;;;;;;;0.30;0.30;;;;;;;9.32;77.06;102837.91;5078533;28;20234;-67
2021/11/20 05:42:05;;;;;;;0.40;0.40;;;;;;;9.33;76.75;102837.09;5060617;28;20050;-67
2021/11/20 05:44:30;;;;;;;0.50;0.50;;;;;;;9.32;76.70;102830.06;5078547;28;20052;-66
2021/11/20 05:46:59;;;;;;;0.40;0.40;;;;;;;9.33;76.42;102819.72;5077941;28;20028;-66
2021/11/20 05:49:30;;;;;;;0.40;0.40;;;;;;;9.31;76.38;102823.03;5077608;28;20043;-68
2021/11/20 05:51:56;;;;;;;0.30;0.30;;;;;;;9.33;76.20;102826.66;5078421;28;20032;-68
2021/11/20 05:54:22;;;;;;;0.30;0.30;;;;;;;9.31;76.20;102829.19;5077976;28;20032;-68
2021/11/20 05:56:47;;;;;;;0.33;0.33;;;;;;;9.30;76.85;102821.22;5078153;28;20662;-67
2021/11/20 05:59:13;;;;;;;0.50;0.50;;;;;;;9.30;76.46;102818.63;5077757;28;20028;-67
2021/11/20 06:01:38;;;;;;;0.57;0.57;;;;;;;9.27;76.49;102815.81;5078226;28;20021;-67
2021/11/20 06:04:04;;;;;;;0.77;0.77;;;;;;;9.31;76.54;102815.19;5077166;28;20028;-67
2021/11/20 06:06:29;;;;;;;0.50;0.50;;;;;;;9.26;77.22;102809.66;5076954;28;20119;-66
2021/11/20 06:08:54;;;;;;;0.60;0.60;;;;;;;9.21;77.66;102796.28;5077519;28;20052;-67
2021/11/20 06:11:20;;;;;;;0.30;0.30;;;;;;;9.21;78.05;102796.28;5078050;28;20326;-67
2021/11/20 06:13:45;;;;;;;0.40;0.40;;;;;;;9.26;77.20;102799.19;5078115;28;20020;-67
2021/11/20 06:16:11;;;;;;;0.40;0.40;;;;;;;9.24;77.01;102795.59;5059984;28;20028;-67
2021/11/20 06:18:36;;;;;;;0.40;0.40;;;;;;;9.23;76.95;102804.25;5077271;28;20099;-67
2021/11/20 06:21:03;;;;;;;0.40;0.40;;;;;;;9.23;77.42;102795.47;5077581;28;20031;-67
2021/11/20 06:23:31;;;;;;;0.30;0.30;;;;;;;9.21;76.82;102796.28;5077259;28;20036;-68
2021/11/20 06:25:57;;;;;;;0.40;0.40;;;;;;;9.23;76.89;102791.19;5077027;28;20260;-67
2021/11/20 06:28:22;;;;;;;0.50;0.50;;;;;;;9.20;76.88;102785.72;5077279;28;20036;-68
2021/11/20 06:30:48;;;;;;;0.40;0.40;;;;;;;9.23;76.69;102785.94;5060165;28;20279;-68
2021/11/20 06:33:13;;;;;;;0.30;0.30;;;;;;;9.24;76.35;102785.13;5076126;28;20302;-67
2021/11/20 06:35:39;;;;;;;0.40;0.40;;;;;;;9.25;76.12;102781.72;5059821;28;20024;-67
2021/11/20 06:38:08;;;;;;;0.30;0.30;;;;;;;9.23;76.39;102785.03;5059055;28;20107;-67
2021/11/20 06:40:37;;;;;;;0.23;0.23;;;;;;;9.22;76.53;102786.75;5076713;28;20039;-67
2021/11/20 06:43:03;;;;;;;0.50;0.50;;;;;;;9.23;76.85;102787.63;5077060;28;20324;-67
2021/11/20 06:45:36;;;;;;;0.40;0.40;;;;;;;9.19;77.18;102790.06;5077167;28;20024;-66
2021/11/20 06:48:03;;;;;;;0.40;0.40;;;;;;;9.17;76.54;102785.53;5076817;28;20031;-67
2021/11/20 06:50:31;;;;;;;0.40;0.40;;;;;;;9.16;76.60;102782.00;5077063;28;20027;-67
2021/11/20 06:52:56;;;;;;;0.30;0.30;;;;;;;9.16;76.73;102788.97;5076847;28;20349;-67
2021/11/20 06:55:22;;;;;;;0.70;0.70;;;;;;;9.16;77.11;102791.56;5076943;28;20028;-67
2021/11/20 06:57:54;;;;;;;0.47;0.47;;;;;;;9.18;76.97;102790.88;5059224;28;20124;-66
2021/11/20 07:00:28;;;;;;;0.30;0.30;;;;;;;9.17;77.55;102788.16;5076891;28;20059;-68
2021/11/20 07:03:04;;;;;;;0.50;0.50;;;;;;;9.19;77.05;102787.47;5059028;28;20047;-67
2021/11/20 07:05:33;;;;;;;0.30;0.30;;;;;;;9.18;76.76;102777.81;5076471;28;20332;-67
2021/11/20 07:08:00;;;;;;;0.40;0.40;;;;;;;9.19;76.90;102787.47;5075570;28;20020;-67
2021/11/20 07:10:31;;;;;;;0.40;0.40;;;;;;;9.17;76.85;102775.97;5058641;28;20370;-67
2021/11/20 07:12:58;;;;;;;0.40;0.40;;;;;;;9.18;76.85;102782.13;5040536;28;20084;-67
2021/11/20 07:15:25;;;;;;;0.40;0.40;;;;;;;9.22;76.80;102786.75;5039883;28;20028;-67
2021/11/20 07:17:52;;;;;;;0.40;0.40;;;;;;;9.22;76.84;102784.16;5058365;28;20021;-67
2021/11/20 07:20:30;;;;;;;0.50;0.50;;;;;;;9.19;77.54;102787.47;5072591;28;20093;-68
2021/11/20 07:22:55;;;;;;;0.50;0.50;;;;;;;9.19;76.91;102783.91;5056888;28;20036;-68
2021/11/20 07:25:25;;;;;;;0.70;0.70;;;;;;;9.25;76.70;102780.78;5057590;28;20311;-67
2021/11/20 07:27:51;;;;;;;0.60;0.60;;;;;;;9.26;76.24;102778.28;5057189;28;20032;-67
2021/11/20 07:30:17;;;;;;;0.43;0.43;;;;;;;9.25;77.00;102768.66;5073928;28;20332;-67
2021/11/20 07:32:43;;;;;;;0.30;0.30;;;;;;;9.29;76.43;102764.53;5075062;28;20032;-68
2021/11/20 07:35:10;;;;;;;0.40;0.40;;;;;;;9.27;76.64;102759.19;5074899;28;20027;-66
2021/11/20 07:37:35;;;;;;;0.40;0.40;;;;;;;9.27;76.57;102758.28;5075772;28;20020;-66
2021/11/20 07:40:09;;;;;;;0.37;0.37;;;;;;;9.28;76.98;102758.38;5075472;28;20032;-67
2021/11/20 07:42:35;;;;;;;0.50;0.50;;;;;;;9.30;76.59;102756.78;5058308;28;20115;-67
2021/11/20 07:45:02;;;;;;;0.43;0.43;;;;;;;9.27;76.66;102750.44;5035676;28;20450;-64
2021/11/20 07:47:29;;;;;;;0.33;0.33;;;;;;;9.27;76.74;102750.44;5058018;28;20120;-66
2021/11/20 07:49:55;;;;;;;0.37;0.37;;;;;;;9.24;76.62;102755.47;5056917;28;20033;-66
2021/11/20 07:52:20;;;;;;;0.40;0.40;;;;;;;9.25;77.08;102759.88;5073024;28;20040;-67
2021/11/20 07:54:46;;;;;;;0.40;0.40;;;;;;;9.27;76.54;102758.28;5038969;28;20405;-66
2021/11/20 07:57:11;;;;;;;0.40;0.40;;;;;;;9.27;76.52;102755.69;5057750;28;20035;-67
2021/11/20 07:59:39;;;;;;;0.40;0.40;;;;;;;9.31;76.39;102755.06;5051386;28;20071;-67
2021/11/20 08:02:06;;;;;;;0.50;0.50;;;;;;;9.33;76.67;102749.13;5056904;28;20051;-67
2021/11/20 08:04:31;;;;;;;0.40;0.40;;;;;;;9.32;76.50;102749.94;5074517;28;20104;-68
2021/11/20 08:06:57;;;;;;;0.60;0.60;;;;;;;9.34;76.70;102745.69;5072866;28;20338;-66
2021/11/20 08:09:22;;;;;;;0.30;0.30;;;;;;;9.36;76.18;102745.81;5057331;28;20410;-67
2021/11/20 08:11:48;;;;;;;0.50;0.50;;;;;;;9.37;76.59;102741.47;5057769;28;20016;-66
2021/11/20 08:14:15;;;;;;;0.40;0.40;;;;;;;9.35;76.95;102737.03;5074888;28;20112;-67
2021/11/20 08:16:43;;;;;;;0.93;0.93;;;;;;;9.34;77.10;102732.63;5035769;28;20021;-67
2021/11/20 08:19:10;;;;;;;0.30;0.30;;;;;;;9.40;76.79;102732.09;5040409;28;20407;-68
2021/11/20 08:21:36;;;;;;;0.30;0.30;;;;;;;9.39;77.29;102725.06;5058268;28;20020;-68
2021/11/20 08:24:01;;;;;;;0.40;0.40;;;;;;;9.44;76.96;102721.06;5057212;28;20312;-67
2021/11/20 08:26:35;;;;;;;0.50;0.50;;;;;;;9.47;77.10;102718.63;5075411;28;20016;-67
2021/11/20 08:29:03;;;;;;;0.30;0.30;;;;;;;9.48;77.02;102715.19;5076592;28;20028;-67
2021/11/20 08:31:28;;;;;;;0.40;0.40;;;;;;;9.51;76.69;102711.88;5061567;28;20040;-67
2021/11/20 08:33:54;;;;;;;0.40;0.40;;;;;;;9.51;76.88;102706.63;5078421;28;20125;-67
2021/11/20 08:36:19;;;;;;;0.90;0.90;;;;;;;9.53;76.86;102706.75;5079544;28;20033;-67
2021/11/20 08:38:44;;;;;;;0.40;0.40;;;;;;;9.51;77.24;102706.63;5052202;28;20040;-68
2021/11/20 08:41:10;;;;;;;0.40;0.40;;;;;;;9.53;77.76;102707.63;5071547;28;20086;-70
2021/11/20 08:43:36;;;;;;;0.23;0.23;;;;;;;9.51;77.17;102706.63;5079458;28;20029;-67
2021/11/20 08:46:04;;;;;;;0.40;0.40;;;;;;;9.52;77.59;102702.31;5079428;28;20027;-67
2021/11/20 08:48:30;;;;;;;0.40;0.40;;;;;;;9.52;77.54;102700.59;5071662;28;20144;-67
2021/11/20 08:51:02;;;;;;;0.50;0.50;;;;;;;9.55;77.65;102695.56;5078813;28;20100;-66
2021/11/20 08:53:27;;;;;;;0.23;0.23;;;;;;;9.57;77.02;102695.66;5079650;28;20020;-66
2021/11/20 08:55:53;;;;;;;0.37;0.37;;;;;;;9.59;77.01;102694.94;5061594;28;20397;-66
2021/11/20 08:58:20;;;;;;;0.53;0.53;;;;;;;9.62;77.45;102694.22;5062154;28;20103;-68
2021/11/20 09:00:53;;;;;;;0.50;0.50;;;;;;;9.63;77.18;102696.03;5079555;28;20024;-67
2021/11/20 09:03:46;;;;;;;0.43;0.43;;;;;;;9.64;77.24;102691.72;5078814;28;20390;-67
2021/11/20 09:06:27;;;;;;;0.40;0.40;;;;;;;9.67;77.33;102690.19;5072454;28;20364;-66
2021/11/20 09:09:21;;;;;;;0.53;0.53;;;;;;;9.70;76.93;102679.00;5040306;28;20106;-65
2021/11/20 09:11:53;;;;;;;0.50;0.50;;;;;;;9.68;77.38;102681.53;5071999;28;20063;-67
2021/11/20 09:14:31;;;;;;;0.30;0.30;;;;;;;9.72;77.20;102682.63;5077342;28;20032;-67
2021/11/20 09:16:58;;;;;;;0.30;0.30;;;;;;;9.70;77.32;102676.38;5061133;28;20047;-68
2021/11/20 09:19:28;;;;;;;0.37;0.37;;;;;;;9.70;77.45;102679.00;5076729;28;20031;-67
2021/11/20 09:21:55;;;;;;;0.40;0.40;;;;;;;9.70;77.23;102672.06;5064112;28;20071;-67
2021/11/20 09:24:21;;;;;;;0.50;0.50;;;;;;;9.68;77.79;102676.31;5078647;28;20417;-66
2021/11/20 09:26:47;;;;;;;0.33;0.33;;;;;;;9.71;77.16;102663.41;5079295;28;20028;-66
2021/11/20 09:29:14;;;;;;;0.40;0.40;;;;;;;9.72;77.61;102669.56;5061006;28;20283;-66
2021/11/20 09:31:45;;;;;;;0.40;0.40;;;;;;;9.71;77.85;102667.75;5044415;28;20043;-67
2021/11/20 09:34:11;;;;;;;0.60;0.60;;;;;;;9.70;77.90;102660.69;5078450;28;20120;-68
2021/11/20 09:36:38;;;;;;;0.50;0.50;;;;;;;9.82;77.07;102663.16;5044817;28;20107;-67
2021/11/20 09:39:05;;;;;;;0.40;0.40;;;;;;;9.82;77.18;102668.38;5069982;28;20040;-67
2021/11/20 09:41:55;;;;;;;0.47;0.47;;;;;;;9.81;77.25;102669.19;5063003;28;20028;-67
2021/11/20 09:44:21;;;;;;;0.47;0.47;;;;;;;9.76;77.62;102668.91;5076600;28;20111;-66
2021/11/20 09:46:52;;;;;;;0.40;0.40;;;;;;;9.77;77.49;102665.47;5078632;28;20063;-67
2021/11/20 09:49:35;;;;;;;0.40;0.40;;;;;;;9.73;77.66;102667.00;5041317;28;20028;-68
2021/11/20 09:52:06;;;;;;;0.40;0.40;;;;;;;9.71;77.85;102663.41;5054971;28;20347;-67
2021/11/20 09:54:36;;;;;;;0.40;0.40;;;;;;;9.73;77.81;102663.50;5066960;28;20033;-68
2021/11/20 09:57:07;;;;;;;0.40;0.40;;;;;;;9.73;77.55;102664.38;5078409;28;20028;-67
2021/11/20 09:59:50;;;;;;;0.50;0.50;;;;;;;9.78;77.95;102664.66;5078270;28;20024;-68
2021/11/20 10:02:20;;;;;;;0.40;0.40;;;;;;;9.77;78.01;102657.63;5057998;28;20025;-68
2021/11/20 10:05:11;;;;;;;0.50;0.50;;;;;;;9.76;77.82;102658.44;5057882;28;20120;-68
2021/11/20 10:07:38;;;;;;;0.50;0.50;;;;;;;9.82;77.61;102652.69;5057935;28;20041;-67
2021/11/20 10:10:22;;;;;;;0.30;0.30;;;;;;;9.85;77.52;102656.38;5061927;28;20023;-67
2021/11/20 10:13:21;;;;;;;0.40;0.40;;;;;;;9.87;77.02;102641.72;5075913;28;20391;-67
2021/11/20 10:16:12;;;;;;;0.50;0.50;;;;;;;9.84;77.99;102646.72;5059824;28;20024;-68
2021/11/20 10:18:46;;;;;;;0.40;0.40;;;;;;;9.82;78.20;102640.50;5070214;28;20110;-68
2021/11/20 10:21:19;;;;;;;0.37;0.37;;;;;;;9.82;77.86;102636.97;5077448;28;20039;-66
2021/11/20 10:24:11;;;;;;;0.30;0.30;;;;;;;9.82;78.15;102635.28;5077799;28;20035;-69
2021/11/20 10:27:04;;;;;;;0.40;0.40;;;;;;;9.82;78.33;102637.91;5078083;28;20024;-67
2021/11/20 10:29:48;;;;;;;0.40;0.40;;;;;;;9.84;77.98;102633.66;5076841;28;20040;-67
2021/11/20 10:32:21;;;;;;;0.30;0.30;;;;;;;9.88;77.87;102637.34;5077593;28;20044;-67
2021/11/20 10:34:59;;;;;;;0.30;0.30;;;;;;;9.86;78.02;102642.53;5077366;28;20383;-66
2021/11/20 10:37:35;;;;;;;0.57;0.57;;;;;;;9.85;78.22;102645.91;5043782;28;20068;-66
2021/11/20 10:40:25;;;;;;;0.50;0.50;;;;;;;9.85;78.30;102643.31;5076382;28;20048;-66
2021/11/20 10:43:00;;;;;;;0.40;0.40;;;;;;;9.86;78.39;102638.97;5075354;28;20120;-66
2021/11/20 10:45:52;;;;;;;0.40;0.40;;;;;;;9.86;78.57;102636.38;5052980;28;20020;-66
2021/11/20 10:48:30;;;;;;;0.30;0.30;;;;;;;9.86;78.44;102629.44;5049100;28;20071;-67
2021/11/20 10:51:30;;;;;;;0.40;0.40;;;;;;;9.85;78.72;102632.84;5048826;28;20041;-66
2021/11/20 10:54:34;;;;;;;0.40;0.40;;;;;;;9.88;78.39;102625.19;5041913;28;20086;-66
2021/11/20 10:57:35;;;;;;;0.30;0.30;;;;;;;9.86;78.79;102624.19;5047476;28;20044;-67
2021/11/20 11:00:21;;;;;;;0.30;0.30;;;;;;;9.88;78.69;102613.81;5008244;28;20037;-66
2021/11/20 11:02:53;;;;;;;0.50;0.50;;;;;;;9.90;78.57;102617.41;5056721;28;20402;-66
2021/11/20 11:05:38;;;;;;;0.40;0.40;;;;;;;9.89;78.51;102608.66;5056593;28;20100;-66
2021/11/20 11:08:20;;;;;;;0.37;0.37;;;;;;;9.85;78.73;102597.94;5039951;28;20033;-65
2021/11/20 11:10:50;;;;;;;0.50;0.50;;;;;;;9.84;78.93;102590.91;5057494;28;20025;-66
2021/11/20 11:13:40;;;;;;;0.50;0.50;;;;;;;9.84;79.01;102585.66;5039804;28;20024;-67
2021/11/20 11:16:21;;;;;;;0.50;0.50;;;;;;;9.88;79.04;102585.03;5055779;28;20041;-67
2021/11/20 11:18:51;;;;;;;0.47;0.47;;;;;;;9.89;79.05;102581.59;5039579;28;20035;-68
2021/11/20 11:21:55;;;;;;;0.47;0.47;;;;;;;9.90;78.96;102576.47;5039684;28;20032;-66
2021/11/20 11:24:42;;;;;;;0.40;0.40;;;;;;;9.92;78.73;102573.94;5056954;28;20111;-66
2021/11/20 11:27:17;;;;;;;0.40;0.40;;;;;;;9.93;78.96;102561.75;5055641;28;20377;-67
2021/11/20 11:29:54;;;;;;;0.50;0.50;;;;;;;9.96;78.84;102559.31;5056854;28;20063;-68
2021/11/20 11:32:20;;;;;;;0.60;0.60;;;;;;;9.96;78.72;102559.31;5065668;28;20035;-66
2021/11/20 11:34:50;;;;;;;0.77;0.77;;;;;;;9.98;78.71;102555.06;5076223;28;20119;-67
2021/11/20 11:37:57;;;;;;;0.40;0.40;;;;;;;9.95;79.00;102542.72;5076201;28;20024;-67
2021/11/20 11:40:43;;;;;;;0.47;0.47;;;;;;;9.95;79.14;102544.44;5054738;28;20032;-67
2021/11/20 11:43:40;;;;;;;0.50;0.50;;;;;;;9.95;79.03;102531.34;5058976;28;20116;-68
2021/11/20 11:46:25;;;;;;;;;;;;;;;9.94;79.01;102519.97;5062638;28;20048;-69
2021/11/20 11:49:07;;;;;;;0.40;0.40;;;;;;;9.94;78.93;102514.72;5042360;28;19936;-69
2021/11/20 11:51:36;;;;;;;0.30;0.30;;;;;;;9.93;79.28;102512.94;5076316;28;20036;-67
2021/11/20 11:54:16;;;;;;;0.40;0.40;;;;;;;9.94;79.49;102513.81;5076376;28;20332;-68